ARG1340 SABE-SGAS
Flight info
| Callsign | ARG1340 |
|---|---|
| Flight time | 1h 36m |
| Altitude | FL370 |
| Route | LAND4B LANDA UN785 GEMSU UP526 SAMGU |
| Aircraft | B38M/M-SDE2E3FGHIRWXY/LB1 |
Departure
| Time | 2026-04-24 20:11 |
|---|---|
| Airport | Aeroparque Jorge Newbery (SABE) |
Arrival
| Time | 2026-04-24 21:47 |
|---|---|
| Airport | Silvio Pettirossi International Airport (SGAS) |
| Time | Latitude | Longitude | Altitude | Speed | Heading |
|---|---|---|---|---|---|
| 2026-04-24 20:04 | -34.55750 | -58.41442 | 28 ft | 0 kts | 298° |
| 2026-04-24 20:07 | -34.55743 | -58.41458 | 28 ft | 5 kts | 298° |
| 2026-04-24 20:08 | -34.55722 | -58.41522 | 28 ft | 11 kts | 273° |
| 2026-04-24 20:08 | -34.55753 | -58.41574 | 28 ft | 13 kts | 216° |
| 2026-04-24 20:08 | -34.55758 | -58.41700 | 28 ft | 14 kts | 296° |
| 2026-04-24 20:08 | -34.55726 | -58.41772 | 28 ft | 15 kts | 302° |
| 2026-04-24 20:09 | -34.55642 | -58.41924 | 28 ft | 17 kts | 304° |
| 2026-04-24 20:09 | -34.55571 | -58.42051 | 28 ft | 19 kts | 306° |
| 2026-04-24 20:09 | -34.55517 | -58.42138 | 28 ft | 20 kts | 307° |
| 2026-04-24 20:09 | -34.55430 | -58.42278 | 28 ft | 21 kts | 306° |
| 2026-04-24 20:10 | -34.55361 | -58.42446 | 28 ft | 16 kts | 275° |
| 2026-04-24 20:10 | -34.55411 | -58.42504 | 28 ft | 8 kts | 120° |
| 2026-04-24 20:10 | -34.55451 | -58.42427 | 29 ft | 25 kts | 123° |
| 2026-04-24 20:10 | -34.55696 | -58.41988 | 28 ft | 99 kts | 124° |
| 2026-04-24 20:11 | -34.56009 | -58.41432 | 27 ft | 139 kts | 124° |
| 2026-04-24 20:11 | -34.56854 | -58.39987 | 544 ft | 165 kts | 126° |
| 2026-04-24 20:11 | -34.57493 | -58.38788 | 1139 ft | 170 kts | 119° |
| 2026-04-24 20:11 | -34.57844 | -58.37429 | 1784 ft | 174 kts | 86° |
| 2026-04-24 20:12 | -34.57501 | -58.35973 | 2191 ft | 191 kts | 56° |
| 2026-04-24 20:12 | -34.56880 | -58.35152 | 2415 ft | 209 kts | 34° |
| 2026-04-24 20:12 | -34.55516 | -58.34289 | 2811 ft | 235 kts | 29° |
| 2026-04-24 20:12 | -34.54129 | -58.33225 | 3665 ft | 240 kts | 32° |
| 2026-04-24 20:13 | -34.52672 | -58.32096 | 4319 ft | 257 kts | 31° |
| 2026-04-24 20:13 | -34.51132 | -58.30914 | 5145 ft | 264 kts | 31° |
| 2026-04-24 20:13 | -34.49566 | -58.29724 | 6031 ft | 270 kts | 29° |
| 2026-04-24 20:13 | -34.47816 | -58.28953 | 6875 ft | 270 kts | 3° |
| 2026-04-24 20:14 | -34.45965 | -58.29229 | 7677 ft | 273 kts | 338° |
| 2026-04-24 20:14 | -34.44321 | -58.30362 | 8531 ft | 275 kts | 326° |
| 2026-04-24 20:14 | -34.42712 | -58.31643 | 9348 ft | 280 kts | 326° |
| 2026-04-24 20:14 | -34.41082 | -58.32954 | 10179 ft | 284 kts | 325° |
| 2026-04-24 20:15 | -34.39403 | -58.34318 | 10662 ft | 300 kts | 324° |
| 2026-04-24 20:15 | -34.37000 | -58.36282 | 11156 ft | 325 kts | 324° |
| 2026-04-24 20:15 | -34.35741 | -58.37314 | 11505 ft | 332 kts | 324° |
| 2026-04-24 20:15 | -34.33246 | -58.39361 | 12473 ft | 336 kts | 324° |
| 2026-04-24 20:16 | -34.31281 | -58.40973 | 13213 ft | 341 kts | 323° |
| 2026-04-24 20:16 | -34.29307 | -58.42592 | 13960 ft | 345 kts | 323° |
| 2026-04-24 20:16 | -34.27981 | -58.43678 | 14422 ft | 347 kts | 324° |
| 2026-04-24 20:16 | -34.25980 | -58.45314 | 15176 ft | 349 kts | 323° |
| 2026-04-24 20:17 | -34.23970 | -58.46959 | 15919 ft | 351 kts | 323° |
| 2026-04-24 20:17 | -34.19918 | -58.50275 | 17345 ft | 355 kts | 323° |
| 2026-04-24 20:17 | -34.17188 | -58.52506 | 18268 ft | 358 kts | 323° |
| 2026-04-24 20:18 | -34.15816 | -58.53626 | 18667 ft | 359 kts | 323° |
| 2026-04-24 20:18 | -34.12956 | -58.55720 | 19420 ft | 367 kts | 335° |
| 2026-04-24 20:18 | -34.10454 | -58.56400 | 20013 ft | 376 kts | 351° |
| 2026-04-24 20:18 | -34.07829 | -58.56596 | 20518 ft | 381 kts | 352° |
| 2026-04-24 20:19 | -34.05177 | -58.56771 | 21062 ft | 384 kts | 353° |
| 2026-04-24 20:19 | -34.02504 | -58.56926 | 21582 ft | 387 kts | 353° |
| 2026-04-24 20:19 | -33.99808 | -58.57071 | 22105 ft | 390 kts | 353° |
| 2026-04-24 20:19 | -33.97087 | -58.57211 | 22617 ft | 394 kts | 353° |
| 2026-04-24 20:20 | -33.94346 | -58.57349 | 23117 ft | 397 kts | 353° |
| 2026-04-24 20:20 | -33.91580 | -58.57485 | 23616 ft | 400 kts | 353° |
| 2026-04-24 20:20 | -33.89724 | -58.57566 | 23874 ft | 403 kts | 353° |
| 2026-04-24 20:20 | -33.86920 | -58.57689 | 24300 ft | 405 kts | 353° |
| 2026-04-24 20:21 | -33.84100 | -58.57813 | 24719 ft | 407 kts | 353° |
| 2026-04-24 20:21 | -33.80315 | -58.57978 | 25271 ft | 410 kts | 352° |
| 2026-04-24 20:21 | -33.78415 | -58.58061 | 25543 ft | 412 kts | 352° |
| 2026-04-24 20:21 | -33.74588 | -58.58228 | 26075 ft | 415 kts | 352° |
| 2026-04-24 20:22 | -33.72665 | -58.58313 | 26344 ft | 417 kts | 352° |
| 2026-04-24 20:22 | -33.69768 | -58.58439 | 26730 ft | 419 kts | 352° |
| 2026-04-24 20:22 | -33.65875 | -58.58609 | 27243 ft | 422 kts | 352° |
| 2026-04-24 20:22 | -33.62941 | -58.58737 | 27622 ft | 424 kts | 352° |
| 2026-04-24 20:23 | -33.60975 | -58.58822 | 27871 ft | 426 kts | 352° |
| 2026-04-24 20:23 | -33.57029 | -58.58993 | 28375 ft | 428 kts | 352° |
| 2026-04-24 20:23 | -33.55044 | -58.59080 | 28619 ft | 429 kts | 351° |
| 2026-04-24 20:23 | -33.51061 | -58.59253 | 29083 ft | 432 kts | 351° |
| 2026-04-24 20:24 | -33.49058 | -58.59340 | 29314 ft | 434 kts | 351° |
| 2026-04-24 20:24 | -33.46044 | -58.59470 | 29670 ft | 436 kts | 351° |
| 2026-04-24 20:24 | -33.43013 | -58.59602 | 30010 ft | 438 kts | 351° |
| 2026-04-24 20:24 | -33.38951 | -58.59778 | 30402 ft | 440 kts | 351° |
| 2026-04-24 20:25 | -33.36916 | -58.59866 | 30608 ft | 441 kts | 351° |
| 2026-04-24 20:25 | -33.33850 | -58.59999 | 30901 ft | 442 kts | 351° |
| 2026-04-24 20:25 | -33.30780 | -58.60131 | 31195 ft | 443 kts | 350° |
| 2026-04-24 20:25 | -33.27700 | -58.60264 | 31485 ft | 445 kts | 350° |
| 2026-04-24 20:26 | -33.24608 | -58.60398 | 31772 ft | 446 kts | 350° |
| 2026-04-24 20:26 | -33.20484 | -58.60575 | 32229 ft | 445 kts | 349° |
| 2026-04-24 20:26 | -33.18425 | -58.60664 | 32507 ft | 444 kts | 349° |
| 2026-04-24 20:26 | -33.15348 | -58.60796 | 32919 ft | 442 kts | 349° |
| 2026-04-24 20:27 | -33.12290 | -58.60927 | 33330 ft | 440 kts | 348° |
| 2026-04-24 20:27 | -33.09245 | -58.61058 | 33746 ft | 438 kts | 348° |
| 2026-04-24 20:27 | -33.06214 | -58.61188 | 34129 ft | 436 kts | 348° |
| 2026-04-24 20:27 | -33.02193 | -58.61362 | 34543 ft | 433 kts | 347° |
| 2026-04-24 20:28 | -33.00204 | -58.61515 | 34731 ft | 430 kts | 345° |
| 2026-04-24 20:28 | -32.97227 | -58.61777 | 35019 ft | 430 kts | 345° |
| 2026-04-24 20:28 | -32.94254 | -58.62031 | 35296 ft | 429 kts | 345° |
| 2026-04-24 20:28 | -32.91286 | -58.62282 | 35561 ft | 428 kts | 345° |
| 2026-04-24 20:29 | -32.88321 | -58.62530 | 35819 ft | 428 kts | 345° |
| 2026-04-24 20:29 | -32.85364 | -58.62777 | 36077 ft | 427 kts | 345° |
| 2026-04-24 20:29 | -32.82408 | -58.63023 | 36321 ft | 426 kts | 344° |
| 2026-04-24 20:29 | -32.78477 | -58.63350 | 36634 ft | 425 kts | 344° |
| 2026-04-24 20:30 | -32.76516 | -58.63513 | 36790 ft | 425 kts | 344° |
| 2026-04-24 20:30 | -32.73575 | -58.63757 | 36994 ft | 424 kts | 344° |
| 2026-04-24 20:30 | -32.67698 | -58.64243 | 37026 ft | 422 kts | 343° |
| 2026-04-24 20:31 | -32.60891 | -58.64807 | 37039 ft | 421 kts | 343° |
| 2026-04-24 20:31 | -32.55058 | -58.65289 | 37043 ft | 420 kts | 343° |
| 2026-04-24 20:32 | -32.50208 | -58.65690 | 37040 ft | 420 kts | 343° |
| 2026-04-24 20:32 | -32.44395 | -58.66169 | 37043 ft | 419 kts | 343° |
| 2026-04-24 20:33 | -32.38591 | -58.66647 | 37034 ft | 419 kts | 343° |
| 2026-04-24 20:33 | -32.31738 | -58.66653 | 37044 ft | 443 kts | 358° |
| 2026-04-24 20:34 | -32.26698 | -58.65633 | 37049 ft | 442 kts | 355° |
| 2026-04-24 20:34 | -32.19627 | -58.64224 | 37038 ft | 442 kts | 355° |
| 2026-04-24 20:35 | -32.14587 | -58.63184 | 37039 ft | 442 kts | 355° |
| 2026-04-24 20:35 | -32.07538 | -58.61723 | 37032 ft | 441 kts | 354° |
| 2026-04-24 20:36 | -32.02510 | -58.60682 | 37037 ft | 441 kts | 354° |
| 2026-04-24 20:36 | -31.96477 | -58.59286 | 37032 ft | 456 kts | 3° |
| 2026-04-24 20:37 | -31.93518 | -58.57669 | 37037 ft | 487 kts | 18° |
| 2026-04-24 20:37 | -31.90657 | -58.55524 | 37030 ft | 484 kts | 13° |
| 2026-04-24 20:37 | -31.83784 | -58.51164 | 37040 ft | 483 kts | 13° |
| 2026-04-24 20:38 | -31.78886 | -58.48028 | 37038 ft | 483 kts | 12° |
| 2026-04-24 20:38 | -31.73000 | -58.44257 | 37037 ft | 483 kts | 12° |
| 2026-04-24 20:39 | -31.66133 | -58.39865 | 37034 ft | 483 kts | 12° |
| 2026-04-24 20:39 | -31.60247 | -58.36107 | 37042 ft | 483 kts | 12° |
| 2026-04-24 20:40 | -31.54350 | -58.32348 | 37034 ft | 483 kts | 12° |
| 2026-04-24 20:40 | -31.49431 | -58.29215 | 37029 ft | 484 kts | 12° |
| 2026-04-24 20:41 | -31.43526 | -58.25459 | 37031 ft | 484 kts | 12° |
| 2026-04-24 20:41 | -31.37618 | -58.21708 | 37026 ft | 484 kts | 12° |
| 2026-04-24 20:42 | -31.31704 | -58.17958 | 37022 ft | 485 kts | 12° |
| 2026-04-24 20:42 | -31.25785 | -58.14211 | 37021 ft | 485 kts | 12° |
| 2026-04-24 20:43 | -31.19862 | -58.10466 | 37018 ft | 485 kts | 12° |
| 2026-04-24 20:43 | -31.12942 | -58.06098 | 37024 ft | 486 kts | 12° |
| 2026-04-24 20:44 | -31.07999 | -58.02982 | 37026 ft | 486 kts | 12° |
| 2026-04-24 20:44 | -31.02052 | -57.99238 | 37029 ft | 487 kts | 12° |
| 2026-04-24 20:45 | -30.96108 | -57.95501 | 37040 ft | 487 kts | 12° |
| 2026-04-24 20:45 | -30.90155 | -57.91764 | 37032 ft | 487 kts | 12° |
| 2026-04-24 20:46 | -30.84200 | -57.88031 | 37030 ft | 487 kts | 12° |
| 2026-04-24 20:46 | -30.78246 | -57.84305 | 37036 ft | 487 kts | 13° |
| 2026-04-24 20:47 | -30.72289 | -57.80582 | 37030 ft | 487 kts | 13° |
| 2026-04-24 20:47 | -30.69302 | -57.78796 | 37023 ft | 476 kts | 6° |
| 2026-04-24 20:47 | -30.65239 | -57.77293 | 37048 ft | 459 kts | 0° |
| 2026-04-24 20:48 | -30.60137 | -57.75506 | 37034 ft | 460 kts | 0° |
| 2026-04-24 20:48 | -30.54013 | -57.73363 | 37030 ft | 461 kts | 1° |
| 2026-04-24 20:49 | -30.47886 | -57.71223 | 37033 ft | 461 kts | 1° |
| 2026-04-24 20:49 | -30.41751 | -57.69082 | 37030 ft | 461 kts | 1° |
| 2026-04-24 20:50 | -30.35616 | -57.66944 | 37033 ft | 462 kts | 1° |
| 2026-04-24 20:50 | -30.28449 | -57.64456 | 37032 ft | 459 kts | 359° |
| 2026-04-24 20:51 | -30.26414 | -57.63960 | 37015 ft | 438 kts | 349° |
| 2026-04-24 20:51 | -30.23450 | -57.63823 | 37051 ft | 427 kts | 346° |
| 2026-04-24 20:51 | -30.16518 | -57.63601 | 37032 ft | 428 kts | 346° |
| 2026-04-24 20:52 | -30.11569 | -57.63482 | 37031 ft | 427 kts | 346° |
| 2026-04-24 20:52 | -30.05633 | -57.63345 | 37035 ft | 428 kts | 346° |
| 2026-04-24 20:53 | -29.99691 | -57.63209 | 37032 ft | 428 kts | 346° |
| 2026-04-24 20:53 | -29.93747 | -57.63072 | 37033 ft | 428 kts | 346° |
| 2026-04-24 20:54 | -29.87794 | -57.62936 | 37033 ft | 429 kts | 346° |
| 2026-04-24 20:54 | -29.81842 | -57.62799 | 37034 ft | 429 kts | 346° |
| 2026-04-24 20:55 | -29.75894 | -57.62663 | 37033 ft | 429 kts | 346° |
| 2026-04-24 20:55 | -29.69935 | -57.62527 | 37038 ft | 429 kts | 346° |
| 2026-04-24 20:56 | -29.63978 | -57.62391 | 37033 ft | 429 kts | 347° |
| 2026-04-24 20:56 | -29.58013 | -57.62255 | 37034 ft | 430 kts | 347° |
| 2026-04-24 20:57 | -29.52044 | -57.62119 | 37022 ft | 430 kts | 347° |
| 2026-04-24 20:57 | -29.46066 | -57.61983 | 37033 ft | 431 kts | 347° |
| 2026-04-24 20:58 | -29.40085 | -57.61847 | 37029 ft | 431 kts | 347° |
| 2026-04-24 20:58 | -29.34101 | -57.61712 | 37029 ft | 431 kts | 347° |
| 2026-04-24 20:59 | -29.28108 | -57.61576 | 37031 ft | 432 kts | 347° |
| 2026-04-24 20:59 | -29.22107 | -57.61434 | 37032 ft | 432 kts | 347° |
| 2026-04-24 21:00 | -29.16103 | -57.61290 | 37031 ft | 432 kts | 348° |
| 2026-04-24 21:00 | -29.10096 | -57.61148 | 37028 ft | 433 kts | 348° |
| 2026-04-24 21:01 | -29.04085 | -57.61005 | 37030 ft | 433 kts | 348° |
| 2026-04-24 21:01 | -28.97068 | -57.60839 | 37029 ft | 433 kts | 348° |
| 2026-04-24 21:02 | -28.92058 | -57.60720 | 37029 ft | 434 kts | 348° |
| 2026-04-24 21:02 | -28.86034 | -57.60577 | 37029 ft | 434 kts | 348° |
| 2026-04-24 21:03 | -28.80007 | -57.60434 | 37025 ft | 434 kts | 348° |
| 2026-04-24 21:03 | -28.73971 | -57.60291 | 37028 ft | 435 kts | 348° |
| 2026-04-24 21:04 | -28.67929 | -57.60149 | 37026 ft | 435 kts | 348° |
| 2026-04-24 21:04 | -28.61883 | -57.60006 | 37023 ft | 435 kts | 348° |
| 2026-04-24 21:05 | -28.55834 | -57.59864 | 37024 ft | 436 kts | 348° |
| 2026-04-24 21:05 | -28.49777 | -57.59721 | 37015 ft | 436 kts | 349° |
| 2026-04-24 21:06 | -28.42715 | -57.59555 | 37025 ft | 436 kts | 349° |
| 2026-04-24 21:06 | -28.37670 | -57.59437 | 37049 ft | 436 kts | 349° |
| 2026-04-24 21:07 | -28.31615 | -57.59295 | 37014 ft | 435 kts | 349° |
| 2026-04-24 21:07 | -28.25563 | -57.59153 | 37021 ft | 436 kts | 349° |
| 2026-04-24 21:08 | -28.19501 | -57.58979 | 37022 ft | 438 kts | 351° |
| 2026-04-24 21:08 | -28.13426 | -57.58718 | 37023 ft | 438 kts | 350° |
| 2026-04-24 21:09 | -28.07349 | -57.58468 | 37016 ft | 438 kts | 351° |
| 2026-04-24 21:09 | -28.01269 | -57.58218 | 37019 ft | 438 kts | 351° |
| 2026-04-24 21:10 | -27.95197 | -57.57969 | 37016 ft | 438 kts | 351° |
| 2026-04-24 21:10 | -27.89114 | -57.57719 | 37017 ft | 438 kts | 351° |
| 2026-04-24 21:11 | -27.83030 | -57.57469 | 37015 ft | 438 kts | 351° |
| 2026-04-24 21:11 | -27.76944 | -57.57220 | 37014 ft | 439 kts | 351° |
| 2026-04-24 21:12 | -27.70851 | -57.56971 | 37007 ft | 439 kts | 352° |
| 2026-04-24 21:12 | -27.64761 | -57.56722 | 37004 ft | 439 kts | 352° |
| 2026-04-24 21:13 | -27.58658 | -57.56473 | 37000 ft | 440 kts | 352° |
| 2026-04-24 21:13 | -27.52553 | -57.56224 | 36999 ft | 440 kts | 352° |
| 2026-04-24 21:14 | -27.46447 | -57.55975 | 36994 ft | 441 kts | 352° |
| 2026-04-24 21:14 | -27.40366 | -57.55769 | 36487 ft | 434 kts | 352° |
| 2026-04-24 21:15 | -27.37370 | -57.55685 | 36004 ft | 430 kts | 352° |
| 2026-04-24 21:15 | -27.34407 | -57.55598 | 35609 ft | 424 kts | 352° |
| 2026-04-24 21:15 | -27.31480 | -57.55512 | 35126 ft | 420 kts | 352° |
| 2026-04-24 21:15 | -27.28572 | -57.55427 | 34638 ft | 417 kts | 352° |
| 2026-04-24 21:16 | -27.25684 | -57.55342 | 34165 ft | 415 kts | 353° |
| 2026-04-24 21:16 | -27.22814 | -57.55258 | 33652 ft | 413 kts | 353° |
| 2026-04-24 21:16 | -27.19953 | -57.55174 | 33143 ft | 411 kts | 353° |
| 2026-04-24 21:16 | -27.17103 | -57.55090 | 32665 ft | 409 kts | 352° |
| 2026-04-24 21:17 | -27.14270 | -57.55007 | 32203 ft | 407 kts | 352° |
| 2026-04-24 21:17 | -27.11454 | -57.54924 | 31735 ft | 405 kts | 352° |
| 2026-04-24 21:17 | -27.08656 | -57.54842 | 31291 ft | 401 kts | 352° |
| 2026-04-24 21:17 | -27.05876 | -57.54760 | 30843 ft | 399 kts | 352° |
| 2026-04-24 21:18 | -27.03117 | -57.54679 | 30401 ft | 397 kts | 352° |
| 2026-04-24 21:18 | -27.00365 | -57.54599 | 29940 ft | 395 kts | 352° |
| 2026-04-24 21:18 | -26.97626 | -57.54518 | 29446 ft | 394 kts | 352° |
| 2026-04-24 21:18 | -26.94899 | -57.54438 | 28974 ft | 392 kts | 352° |
| 2026-04-24 21:19 | -26.92190 | -57.54359 | 28551 ft | 388 kts | 352° |
| 2026-04-24 21:19 | -26.89504 | -57.54280 | 28130 ft | 385 kts | 352° |
| 2026-04-24 21:19 | -26.86843 | -57.54202 | 27706 ft | 383 kts | 352° |
| 2026-04-24 21:19 | -26.84192 | -57.54163 | 27198 ft | 381 kts | 351° |
| 2026-04-24 21:20 | -26.78941 | -57.54114 | 26423 ft | 375 kts | 352° |
| 2026-04-24 21:20 | -26.76341 | -57.54085 | 26016 ft | 374 kts | 352° |
| 2026-04-24 21:20 | -26.73752 | -57.54056 | 25613 ft | 372 kts | 352° |
| 2026-04-24 21:21 | -26.71170 | -57.54028 | 25211 ft | 371 kts | 352° |
| 2026-04-24 21:21 | -26.68599 | -57.53999 | 24805 ft | 370 kts | 352° |
| 2026-04-24 21:21 | -26.66036 | -57.53971 | 24407 ft | 369 kts | 352° |
| 2026-04-24 21:21 | -26.63474 | -57.53942 | 23999 ft | 368 kts | 352° |
| 2026-04-24 21:22 | -26.60919 | -57.53914 | 23608 ft | 368 kts | 352° |
| 2026-04-24 21:22 | -26.58372 | -57.53885 | 23142 ft | 367 kts | 352° |
| 2026-04-24 21:22 | -26.55842 | -57.53856 | 22747 ft | 358 kts | 352° |
| 2026-04-24 21:22 | -26.53405 | -57.53827 | 22459 ft | 344 kts | 352° |
| 2026-04-24 21:23 | -26.51056 | -57.53800 | 22141 ft | 333 kts | 352° |
| 2026-04-24 21:23 | -26.48783 | -57.53776 | 21825 ft | 322 kts | 352° |
| 2026-04-24 21:23 | -26.46527 | -57.53754 | 21529 ft | 330 kts | 353° |
| 2026-04-24 21:23 | -26.44216 | -57.53728 | 21186 ft | 335 kts | 353° |
| 2026-04-24 21:24 | -26.41877 | -57.53702 | 20878 ft | 338 kts | 353° |
| 2026-04-24 21:24 | -26.39531 | -57.53676 | 20559 ft | 337 kts | 354° |
| 2026-04-24 21:24 | -26.37194 | -57.53650 | 20235 ft | 336 kts | 354° |
| 2026-04-24 21:24 | -26.34866 | -57.53624 | 19904 ft | 334 kts | 354° |
| 2026-04-24 21:25 | -26.32553 | -57.53599 | 19579 ft | 332 kts | 354° |
| 2026-04-24 21:25 | -26.30251 | -57.53573 | 19254 ft | 331 kts | 355° |
| 2026-04-24 21:25 | -26.27966 | -57.53548 | 18930 ft | 329 kts | 355° |
| 2026-04-24 21:25 | -26.24930 | -57.53514 | 18502 ft | 328 kts | 355° |
| 2026-04-24 21:26 | -26.23414 | -57.53497 | 18289 ft | 327 kts | 355° |
| 2026-04-24 21:26 | -26.21156 | -57.53473 | 17929 ft | 324 kts | 355° |
| 2026-04-24 21:26 | -26.18915 | -57.53448 | 17593 ft | 321 kts | 355° |
| 2026-04-24 21:26 | -26.16695 | -57.53424 | 17274 ft | 318 kts | 355° |
| 2026-04-24 21:27 | -26.14496 | -57.53400 | 16959 ft | 316 kts | 355° |
| 2026-04-24 21:27 | -26.12313 | -57.53375 | 16653 ft | 312 kts | 356° |
| 2026-04-24 21:27 | -26.10154 | -57.53352 | 16349 ft | 309 kts | 356° |
| 2026-04-24 21:27 | -26.08018 | -57.53289 | 16014 ft | 310 kts | 2° |
| 2026-04-24 21:28 | -26.05894 | -57.52842 | 15696 ft | 310 kts | 6° |
| 2026-04-24 21:28 | -26.03795 | -57.52412 | 15424 ft | 305 kts | 5° |
| 2026-04-24 21:28 | -26.01717 | -57.52006 | 15145 ft | 302 kts | 5° |
| 2026-04-24 21:28 | -25.99662 | -57.51615 | 14863 ft | 299 kts | 5° |
| 2026-04-24 21:29 | -25.97617 | -57.51234 | 14587 ft | 299 kts | 5° |
| 2026-04-24 21:29 | -25.95549 | -57.50853 | 14284 ft | 304 kts | 5° |
| 2026-04-24 21:29 | -25.93452 | -57.50468 | 13990 ft | 307 kts | 5° |
| 2026-04-24 21:29 | -25.91353 | -57.50083 | 13684 ft | 306 kts | 5° |
| 2026-04-24 21:30 | -25.89266 | -57.49700 | 13367 ft | 303 kts | 5° |
| 2026-04-24 21:30 | -25.87201 | -57.49322 | 13066 ft | 300 kts | 5° |
| 2026-04-24 21:30 | -25.85158 | -57.48948 | 12776 ft | 297 kts | 5° |
| 2026-04-24 21:30 | -25.83132 | -57.48577 | 12492 ft | 294 kts | 5° |
| 2026-04-24 21:31 | -25.81133 | -57.48211 | 12205 ft | 290 kts | 5° |
| 2026-04-24 21:31 | -25.79153 | -57.47849 | 11931 ft | 287 kts | 5° |
| 2026-04-24 21:31 | -25.77197 | -57.47491 | 11652 ft | 284 kts | 5° |
| 2026-04-24 21:31 | -25.75252 | -57.47136 | 11386 ft | 286 kts | 5° |
| 2026-04-24 21:32 | -25.73276 | -57.46775 | 11101 ft | 291 kts | 6° |
| 2026-04-24 21:32 | -25.71272 | -57.46409 | 10818 ft | 293 kts | 6° |
| 2026-04-24 21:32 | -25.69265 | -57.46042 | 10545 ft | 293 kts | 6° |
| 2026-04-24 21:32 | -25.67261 | -57.45676 | 10272 ft | 292 kts | 6° |
| 2026-04-24 21:33 | -25.65288 | -57.45315 | 10141 ft | 284 kts | 6° |
| 2026-04-24 21:33 | -25.63367 | -57.44965 | 9960 ft | 278 kts | 6° |
| 2026-04-24 21:33 | -25.61468 | -57.44619 | 9665 ft | 276 kts | 6° |
| 2026-04-24 21:33 | -25.59583 | -57.44275 | 9375 ft | 274 kts | 6° |
| 2026-04-24 21:34 | -25.57716 | -57.43935 | 9097 ft | 271 kts | 6° |
| 2026-04-24 21:34 | -25.55869 | -57.43598 | 8816 ft | 268 kts | 6° |
| 2026-04-24 21:34 | -25.54041 | -57.43265 | 8549 ft | 265 kts | 6° |
| 2026-04-24 21:34 | -25.52231 | -57.42936 | 8288 ft | 263 kts | 6° |
| 2026-04-24 21:35 | -25.50437 | -57.42609 | 8034 ft | 261 kts | 6° |
| 2026-04-24 21:35 | -25.48654 | -57.42284 | 7777 ft | 259 kts | 6° |
| 2026-04-24 21:35 | -25.46881 | -57.41961 | 7510 ft | 258 kts | 6° |
| 2026-04-24 21:35 | -25.45113 | -57.41639 | 7238 ft | 257 kts | 6° |
| 2026-04-24 21:36 | -25.43356 | -57.41320 | 6996 ft | 256 kts | 7° |
| 2026-04-24 21:36 | -25.41609 | -57.41002 | 6739 ft | 254 kts | 7° |
| 2026-04-24 21:36 | -25.39869 | -57.40685 | 6489 ft | 254 kts | 7° |
| 2026-04-24 21:36 | -25.38136 | -57.40372 | 6213 ft | 252 kts | 7° |
| 2026-04-24 21:37 | -25.36416 | -57.40058 | 5952 ft | 250 kts | 7° |
| 2026-04-24 21:37 | -25.34713 | -57.39749 | 5697 ft | 247 kts | 7° |
| 2026-04-24 21:37 | -25.33019 | -57.39443 | 5451 ft | 250 kts | 7° |
| 2026-04-24 21:37 | -25.31284 | -57.39128 | 5194 ft | 256 kts | 7° |
| 2026-04-24 21:38 | -25.29524 | -57.38808 | 4930 ft | 258 kts | 7° |
| 2026-04-24 21:38 | -25.27757 | -57.38487 | 4692 ft | 258 kts | 8° |
| 2026-04-24 21:38 | -25.25991 | -57.38168 | 4457 ft | 256 kts | 8° |
| 2026-04-24 21:38 | -25.24262 | -57.37854 | 4361 ft | 248 kts | 8° |
| 2026-04-24 21:39 | -25.22586 | -57.37550 | 4233 ft | 240 kts | 8° |
| 2026-04-24 21:39 | -25.20966 | -57.37257 | 4113 ft | 233 kts | 8° |
| 2026-04-24 21:39 | -25.19400 | -57.36973 | 4001 ft | 225 kts | 8° |
| 2026-04-24 21:39 | -25.17884 | -57.36699 | 3864 ft | 219 kts | 7° |
| 2026-04-24 21:40 | -25.16373 | -57.36425 | 3748 ft | 223 kts | 8° |
| 2026-04-24 21:40 | -25.14837 | -57.36145 | 3643 ft | 224 kts | 8° |
| 2026-04-24 21:40 | -25.13300 | -57.35867 | 3485 ft | 223 kts | 8° |
| 2026-04-24 21:40 | -25.11777 | -57.35595 | 3185 ft | 225 kts | 7° |
| 2026-04-24 21:41 | -25.10241 | -57.35740 | 2886 ft | 223 kts | 338° |
| 2026-04-24 21:41 | -25.09010 | -57.36692 | 2732 ft | 214 kts | 309° |
| 2026-04-24 21:41 | -25.08332 | -57.38073 | 2667 ft | 198 kts | 288° |
| 2026-04-24 21:41 | -25.07959 | -57.39477 | 2555 ft | 185 kts | 285° |
| 2026-04-24 21:42 | -25.07636 | -57.40806 | 2466 ft | 177 kts | 285° |
| 2026-04-24 21:42 | -25.07333 | -57.42115 | 2399 ft | 176 kts | 283° |
| 2026-04-24 21:42 | -25.07050 | -57.43425 | 2336 ft | 176 kts | 283° |
| 2026-04-24 21:42 | -25.06772 | -57.44737 | 2270 ft | 176 kts | 283° |
| 2026-04-24 21:43 | -25.06737 | -57.46023 | 2177 ft | 162 kts | 252° |
| 2026-04-24 21:43 | -25.07361 | -57.46940 | 2034 ft | 147 kts | 217° |
| 2026-04-24 21:43 | -25.08213 | -57.47588 | 2090 ft | 151 kts | 213° |
| 2026-04-24 21:43 | -25.09165 | -57.48133 | 2242 ft | 158 kts | 204° |
| 2026-04-24 21:44 | -25.10213 | -57.48513 | 2279 ft | 159 kts | 198° |
| 2026-04-24 21:44 | -25.11291 | -57.48808 | 2310 ft | 161 kts | 195° |
| 2026-04-24 21:44 | -25.12373 | -57.49080 | 2157 ft | 159 kts | 194° |
| 2026-04-24 21:44 | -25.13448 | -57.49342 | 1987 ft | 157 kts | 195° |
| 2026-04-24 21:45 | -25.14513 | -57.49601 | 1790 ft | 157 kts | 195° |
| 2026-04-24 21:45 | -25.15576 | -57.49856 | 1626 ft | 156 kts | 194° |
| 2026-04-24 21:45 | -25.16617 | -57.50120 | 1370 ft | 151 kts | 195° |
| 2026-04-24 21:45 | -25.17633 | -57.50369 | 1199 ft | 149 kts | 194° |
| 2026-04-24 21:46 | -25.18639 | -57.50612 | 1023 ft | 147 kts | 195° |
| 2026-04-24 21:46 | -25.19641 | -57.50857 | 863 ft | 149 kts | 196° |
| 2026-04-24 21:46 | -25.20661 | -57.51105 | 661 ft | 151 kts | 196° |
| 2026-04-24 21:46 | -25.21688 | -57.51341 | 420 ft | 150 kts | 195° |
| 2026-04-24 21:47 | -25.22701 | -57.51595 | 302 ft | 150 kts | 195° |
| 2026-04-24 21:47 | -25.23621 | -57.51821 | 277 ft | 114 kts | 194° |
| 2026-04-24 21:47 | -25.24181 | -57.51962 | 284 ft | 52 kts | 189° |
| 2026-04-24 21:47 | -25.24385 | -57.52008 | 286 ft | 22 kts | 192° |
| 2026-04-24 21:48 | -25.24518 | -57.52054 | 288 ft | 14 kts | 216° |
| 2026-04-24 21:48 | -25.24529 | -57.52042 | 286 ft | 5 kts | 70° |
| 2026-04-24 21:48 | -25.24461 | -57.52025 | 286 ft | 15 kts | 6° |
| 2026-04-24 21:48 | -25.24357 | -57.52000 | 288 ft | 16 kts | 12° |
| 2026-04-24 21:49 | -25.24267 | -57.51969 | 288 ft | 12 kts | 45° |
| 2026-04-24 21:49 | -25.24269 | -57.51892 | 283 ft | 9 kts | 102° |
| 2026-04-24 21:49 | -25.24276 | -57.51857 | 284 ft | 2 kts | 102° |
| 2026-04-24 21:49 | -25.24282 | -57.51829 | 282 ft | 6 kts | 102° |
| 2026-04-24 21:50 | -25.24293 | -57.51774 | 284 ft | 9 kts | 102° |
| 2026-04-24 21:50 | -25.24304 | -57.51719 | 285 ft | 8 kts | 103° |
| 2026-04-24 21:50 | -25.24282 | -57.51662 | 281 ft | 10 kts | 32° |
| 2026-04-24 21:50 | -25.24225 | -57.51621 | 281 ft | 7 kts | 51° |
| 2026-04-24 21:51 | -25.24226 | -57.51582 | 281 ft | 5 kts | 104° |
| 2026-04-24 21:51 | -25.24232 | -57.51554 | 284 ft | 2 kts | 103° |
| 2026-04-24 21:51 | -25.24234 | -57.51546 | 281 ft | 0 kts | 103° |
| 2026-04-24 21:51 | -25.24234 | -57.51545 | 281 ft | 0 kts | 103° |